sensor_id;sensor_type;location;lat;lon;timestamp;temperature;humidity
17348;DHT22;8791;50.876;4.342;2023-07-31T00:01:41;18.00;99.90
17348;DHT22;8791;50.876;4.342;2023-07-31T00:04:08;17.90;99.90
17348;DHT22;8791;50.876;4.342;2023-07-31T00:06:34;17.80;99.90
17348;DHT22;8791;50.876;4.342;2023-07-31T00:09:01;17.80;99.90
17348;DHT22;8791;50.876;4.342;2023-07-31T00:11:28;17.80;99.90
17348;DHT22;8791;50.876;4.342;2023-07-31T00:13:56;17.90;99.90
17348;DHT22;8791;50.876;4.342;2023-07-31T00:16:23;17.80;99.90
17348;DHT22;8791;50.876;4.342;2023-07-31T00:18:50;17.80;99.90
17348;DHT22;8791;50.876;4.342;2023-07-31T00:21:17;17.90;99.90
17348;DHT22;8791;50.876;4.342;2023-07-31T00:23:44;17.90;99.90
17348;DHT22;8791;50.876;4.342;2023-07-31T00:26:10;17.90;99.90
17348;DHT22;8791;50.876;4.342;2023-07-31T00:28:37;17.90;99.90
17348;DHT22;8791;50.876;4.342;2023-07-31T00:31:05;17.90;99.90
17348;DHT22;8791;50.876;4.342;2023-07-31T00:33:34;17.80;99.90
17348;DHT22;8791;50.876;4.342;2023-07-31T00:36:00;17.90;99.90
17348;DHT22;8791;50.876;4.342;2023-07-31T00:38:27;17.80;99.90
17348;DHT22;8791;50.876;4.342;2023-07-31T00:40:54;17.90;99.90
17348;DHT22;8791;50.876;4.342;2023-07-31T00:43:21;17.90;99.90
17348;DHT22;8791;50.876;4.342;2023-07-31T00:45:48;17.90;99.90
17348;DHT22;8791;50.876;4.342;2023-07-31T00:48:16;18.00;99.90
17348;DHT22;8791;50.876;4.342;2023-07-31T00:50:43;18.00;99.90
17348;DHT22;8791;50.876;4.342;2023-07-31T00:53:10;17.90;99.90
17348;DHT22;8791;50.876;4.342;2023-07-31T00:55:37;18.00;99.90
17348;DHT22;8791;50.876;4.342;2023-07-31T00:58:04;18.00;99.90
17348;DHT22;8791;50.876;4.342;2023-07-31T01:00:31;18.10;99.90
17348;DHT22;8791;50.876;4.342;2023-07-31T01:02:58;18.00;99.90
17348;DHT22;8791;50.876;4.342;2023-07-31T01:22:33;18.00;99.90
17348;DHT22;8791;50.876;4.342;2023-07-31T01:25:15;18.10;99.90
17348;DHT22;8791;50.876;4.342;2023-07-31T01:27:55;18.00;99.90
17348;DHT22;8791;50.876;4.342;2023-07-31T01:30:28;18.10;99.90
17348;DHT22;8791;50.876;4.342;2023-07-31T01:32:59;18.00;99.90
17348;DHT22;8791;50.876;4.342;2023-07-31T01:35:28;17.90;99.90
17348;DHT22;8791;50.876;4.342;2023-07-31T01:37:55;18.00;99.90
17348;DHT22;8791;50.876;4.342;2023-07-31T01:40:22;18.10;99.90
17348;DHT22;8791;50.876;4.342;2023-07-31T01:42:50;18.10;99.90
17348;DHT22;8791;50.876;4.342;2023-07-31T01:45:17;18.00;99.90
17348;DHT22;8791;50.876;4.342;2023-07-31T01:47:43;18.00;99.90
17348;DHT22;8791;50.876;4.342;2023-07-31T01:50:11;18.00;99.90
17348;DHT22;8791;50.876;4.342;2023-07-31T01:52:38;17.90;99.90
17348;DHT22;8791;50.876;4.342;2023-07-31T01:55:05;18.00;99.90
17348;DHT22;8791;50.876;4.342;2023-07-31T01:57:31;17.90;99.90
17348;DHT22;8791;50.876;4.342;2023-07-31T02:00:00;18.00;99.90
17348;DHT22;8791;50.876;4.342;2023-07-31T02:02:27;17.90;99.90
17348;DHT22;8791;50.876;4.342;2023-07-31T02:04:54;17.90;99.90
17348;DHT22;8791;50.876;4.342;2023-07-31T02:07:21;17.90;99.90
17348;DHT22;8791;50.876;4.342;2023-07-31T02:09:48;17.80;99.90
17348;DHT22;8791;50.876;4.342;2023-07-31T02:12:15;17.80;99.90
17348;DHT22;8791;50.876;4.342;2023-07-31T02:14:42;17.80;99.90
17348;DHT22;8791;50.876;4.342;2023-07-31T02:17:10;17.90;99.90
17348;DHT22;8791;50.876;4.342;2023-07-31T02:19:37;17.90;99.90
17348;DHT22;8791;50.876;4.342;2023-07-31T02:22:04;18.00;99.90
17348;DHT22;8791;50.876;4.342;2023-07-31T02:24:31;18.00;99.90
17348;DHT22;8791;50.876;4.342;2023-07-31T02:26:58;17.90;99.90
17348;DHT22;8791;50.876;4.342;2023-07-31T02:29:25;18.00;99.90
17348;DHT22;8791;50.876;4.342;2023-07-31T02:31:52;18.00;99.90
17348;DHT22;8791;50.876;4.342;2023-07-31T02:34:20;18.10;99.90
17348;DHT22;8791;50.876;4.342;2023-07-31T02:36:46;18.00;99.90
17348;DHT22;8791;50.876;4.342;2023-07-31T02:39:13;18.00;99.90
17348;DHT22;8791;50.876;4.342;2023-07-31T02:41:40;17.90;99.90
17348;DHT22;8791;50.876;4.342;2023-07-31T02:44:07;17.90;99.90
17348;DHT22;8791;50.876;4.342;2023-07-31T02:46:34;17.90;99.90
17348;DHT22;8791;50.876;4.342;2023-07-31T02:49:00;17.90;99.90
17348;DHT22;8791;50.876;4.342;2023-07-31T02:51:29;18.00;99.90
17348;DHT22;8791;50.876;4.342;2023-07-31T02:53:55;17.90;99.90
17348;DHT22;8791;50.876;4.342;2023-07-31T02:56:22;17.90;99.90
17348;DHT22;8791;50.876;4.342;2023-07-31T02:58:49;17.90;99.90
17348;DHT22;8791;50.876;4.342;2023-07-31T03:01:16;17.90;99.90
17348;DHT22;8791;50.876;4.342;2023-07-31T03:03:43;18.00;99.90
17348;DHT22;8791;50.876;4.342;2023-07-31T03:06:09;18.00;99.90
17348;DHT22;8791;50.876;4.342;2023-07-31T03:08:37;17.90;99.90
17348;DHT22;8791;50.876;4.342;2023-07-31T03:11:04;17.90;99.90
17348;DHT22;8791;50.876;4.342;2023-07-31T03:13:31;17.70;99.90
17348;DHT22;8791;50.876;4.342;2023-07-31T03:15:58;17.60;99.90
17348;DHT22;8791;50.876;4.342;2023-07-31T03:18:25;17.60;99.90
17348;DHT22;8791;50.876;4.342;2023-07-31T03:20:52;17.70;99.90
17348;DHT22;8791;50.876;4.342;2023-07-31T03:23:19;17.70;99.90
17348;DHT22;8791;50.876;4.342;2023-07-31T03:26:01;17.60;99.90
17348;DHT22;8791;50.876;4.342;2023-07-31T03:28:28;17.70;99.90
17348;DHT22;8791;50.876;4.342;2023-07-31T03:30:55;17.60;99.90
17348;DHT22;8791;50.876;4.342;2023-07-31T03:33:22;17.70;99.90
17348;DHT22;8791;50.876;4.342;2023-07-31T03:35:49;17.60;99.90
17348;DHT22;8791;50.876;4.342;2023-07-31T03:38:16;17.50;99.90
17348;DHT22;8791;50.876;4.342;2023-07-31T03:40:43;17.60;99.90
17348;DHT22;8791;50.876;4.342;2023-07-31T03:43:11;17.50;99.90
17348;DHT22;8791;50.876;4.342;2023-07-31T03:45:38;17.50;99.90
17348;DHT22;8791;50.876;4.342;2023-07-31T03:48:05;17.60;99.90
17348;DHT22;8791;50.876;4.342;2023-07-31T03:50:33;17.70;99.90
17348;DHT22;8791;50.876;4.342;2023-07-31T03:53:00;17.50;99.90
17348;DHT22;8791;50.876;4.342;2023-07-31T03:55:26;17.40;99.90
17348;DHT22;8791;50.876;4.342;2023-07-31T03:57:53;17.40;99.90
17348;DHT22;8791;50.876;4.342;2023-07-31T04:00:22;17.30;99.90
17348;DHT22;8791;50.876;4.342;2023-07-31T04:02:48;17.30;99.90
17348;DHT22;8791;50.876;4.342;2023-07-31T04:05:15;17.30;99.90
17348;DHT22;8791;50.876;4.342;2023-07-31T04:07:42;17.30;99.90
17348;DHT22;8791;50.876;4.342;2023-07-31T04:10:09;17.30;99.90
17348;DHT22;8791;50.876;4.342;2023-07-31T04:12:36;17.40;99.90
17348;DHT22;8791;50.876;4.342;2023-07-31T04:15:03;17.50;99.90
17348;DHT22;8791;50.876;4.342;2023-07-31T04:17:31;17.50;99.90
17348;DHT22;8791;50.876;4.342;2023-07-31T04:19:58;17.40;99.90
17348;DHT22;8791;50.876;4.342;2023-07-31T04:22:25;17.40;99.90
17348;DHT22;8791;50.876;4.342;2023-07-31T04:24:52;17.40;99.90
17348;DHT22;8791;50.876;4.342;2023-07-31T04:27:19;17.40;99.90
17348;DHT22;8791;50.876;4.342;2023-07-31T04:29:45;17.50;99.90
17348;DHT22;8791;50.876;4.342;2023-07-31T04:32:13;17.50;99.90
17348;DHT22;8791;50.876;4.342;2023-07-31T04:34:43;17.40;99.90
17348;DHT22;8791;50.876;4.342;2023-07-31T04:37:10;17.40;99.90
17348;DHT22;8791;50.876;4.342;2023-07-31T04:39:37;17.50;99.90
17348;DHT22;8791;50.876;4.342;2023-07-31T04:42:04;17.40;99.90
17348;DHT22;8791;50.876;4.342;2023-07-31T04:44:31;17.50;99.90
17348;DHT22;8791;50.876;4.342;2023-07-31T04:46:57;17.50;99.90
17348;DHT22;8791;50.876;4.342;2023-07-31T04:49:24;17.50;99.90
17348;DHT22;8791;50.876;4.342;2023-07-31T04:51:52;17.50;99.90
17348;DHT22;8791;50.876;4.342;2023-07-31T04:54:19;17.40;99.90
17348;DHT22;8791;50.876;4.342;2023-07-31T04:56:46;17.50;99.90
17348;DHT22;8791;50.876;4.342;2023-07-31T04:59:13;17.50;99.90
17348;DHT22;8791;50.876;4.342;2023-07-31T05:01:40;17.50;99.90
17348;DHT22;8791;50.876;4.342;2023-07-31T05:04:07;17.70;99.90
17348;DHT22;8791;50.876;4.342;2023-07-31T05:06:34;17.70;99.90
17348;DHT22;8791;50.876;4.342;2023-07-31T05:09:02;17.60;99.90
17348;DHT22;8791;50.876;4.342;2023-07-31T05:11:29;17.60;99.90
17348;DHT22;8791;50.876;4.342;2023-07-31T05:13:55;17.50;99.90
17348;DHT22;8791;50.876;4.342;2023-07-31T05:16:22;17.40;99.90
17348;DHT22;8791;50.876;4.342;2023-07-31T05:18:49;17.20;99.90
17348;DHT22;8791;50.876;4.342;2023-07-31T05:21:16;17.20;99.90
17348;DHT22;8791;50.876;4.342;2023-07-31T05:23:43;17.10;99.90
17348;DHT22;8791;50.876;4.342;2023-07-31T05:26:11;17.10;99.90
17348;DHT22;8791;50.876;4.342;2023-07-31T05:28:38;17.10;99.90
17348;DHT22;8791;50.876;4.342;2023-07-31T05:31:05;17.10;99.90
17348;DHT22;8791;50.876;4.342;2023-07-31T05:33:32;17.10;99.90
17348;DHT22;8791;50.876;4.342;2023-07-31T05:35:59;17.10;99.90
17348;DHT22;8791;50.876;4.342;2023-07-31T05:38:26;17.00;99.90
17348;DHT22;8791;50.876;4.342;2023-07-31T05:40:53;17.00;99.90
17348;DHT22;8791;50.876;4.342;2023-07-31T05:43:21;17.00;99.90
17348;DHT22;8791;50.876;4.342;2023-07-31T05:45:48;16.90;99.90
17348;DHT22;8791;50.876;4.342;2023-07-31T05:48:15;17.00;99.90
17348;DHT22;8791;50.876;4.342;2023-07-31T05:50:43;16.90;99.90
17348;DHT22;8791;50.876;4.342;2023-07-31T05:53:10;17.10;99.90
17348;DHT22;8791;50.876;4.342;2023-07-31T05:55:36;17.30;99.90
17348;DHT22;8791;50.876;4.342;2023-07-31T05:58:03;17.40;99.90
17348;DHT22;8791;50.876;4.342;2023-07-31T06:00:31;17.40;99.90
17348;DHT22;8791;50.876;4.342;2023-07-31T06:02:58;17.30;99.90
17348;DHT22;8791;50.876;4.342;2023-07-31T06:05:25;17.40;99.90
17348;DHT22;8791;50.876;4.342;2023-07-31T06:07:54;17.40;99.90
17348;DHT22;8791;50.876;4.342;2023-07-31T06:10:21;17.40;99.90
17348;DHT22;8791;50.876;4.342;2023-07-31T06:12:47;17.40;99.90
17348;DHT22;8791;50.876;4.342;2023-07-31T06:15:14;17.30;99.90
17348;DHT22;8791;50.876;4.342;2023-07-31T06:17:43;17.30;99.90
17348;DHT22;8791;50.876;4.342;2023-07-31T06:20:10;17.40;99.90
17348;DHT22;8791;50.876;4.342;2023-07-31T06:22:37;17.40;99.90
17348;DHT22;8791;50.876;4.342;2023-07-31T06:25:04;17.30;99.90
17348;DHT22;8791;50.876;4.342;2023-07-31T06:27:31;17.30;99.90
17348;DHT22;8791;50.876;4.342;2023-07-31T06:29:58;17.40;99.90
17348;DHT22;8791;50.876;4.342;2023-07-31T06:32:27;17.50;99.90
17348;DHT22;8791;50.876;4.342;2023-07-31T06:34:56;17.50;99.90
17348;DHT22;8791;50.876;4.342;2023-07-31T06:37:22;17.50;99.90
17348;DHT22;8791;50.876;4.342;2023-07-31T06:39:49;17.50;99.90
17348;DHT22;8791;50.876;4.342;2023-07-31T06:42:16;17.50;99.90
17348;DHT22;8791;50.876;4.342;2023-07-31T06:44:43;17.60;99.90
17348;DHT22;8791;50.876;4.342;2023-07-31T06:47:10;17.60;99.90
17348;DHT22;8791;50.876;4.342;2023-07-31T06:49:36;17.60;99.90
17348;DHT22;8791;50.876;4.342;2023-07-31T06:52:05;17.60;99.90
17348;DHT22;8791;50.876;4.342;2023-07-31T06:54:32;17.70;99.90
17348;DHT22;8791;50.876;4.342;2023-07-31T06:56:59;17.60;99.90
17348;DHT22;8791;50.876;4.342;2023-07-31T06:59:26;17.70;99.90
17348;DHT22;8791;50.876;4.342;2023-07-31T07:01:53;17.80;99.90
17348;DHT22;8791;50.876;4.342;2023-07-31T07:04:20;17.80;99.90
17348;DHT22;8791;50.876;4.342;2023-07-31T07:06:47;17.90;99.90
17348;DHT22;8791;50.876;4.342;2023-07-31T07:09:15;17.90;99.90
17348;DHT22;8791;50.876;4.342;2023-07-31T07:11:42;18.00;99.90
17348;DHT22;8791;50.876;4.342;2023-07-31T07:14:08;18.10;99.90
17348;DHT22;8791;50.876;4.342;2023-07-31T07:16:35;18.30;99.90
17348;DHT22;8791;50.876;4.342;2023-07-31T07:19:03;18.40;99.90
17348;DHT22;8791;50.876;4.342;2023-07-31T07:21:30;18.30;99.90
17348;DHT22;8791;50.876;4.342;2023-07-31T07:23:56;18.40;99.90
17348;DHT22;8791;50.876;4.342;2023-07-31T07:26:24;18.60;99.90
17348;DHT22;8791;50.876;4.342;2023-07-31T07:28:51;18.60;99.90
17348;DHT22;8791;50.876;4.342;2023-07-31T07:31:18;18.60;99.90
17348;DHT22;8791;50.876;4.342;2023-07-31T07:33:45;18.70;99.90
17348;DHT22;8791;50.876;4.342;2023-07-31T07:36:12;18.60;99.90
17348;DHT22;8791;50.876;4.342;2023-07-31T07:38:38;18.60;99.90
17348;DHT22;8791;50.876;4.342;2023-07-31T07:41:06;18.40;99.90
17348;DHT22;8791;50.876;4.342;2023-07-31T07:43:34;18.40;99.90
17348;DHT22;8791;50.876;4.342;2023-07-31T07:46:01;18.30;99.90
17348;DHT22;8791;50.876;4.342;2023-07-31T07:48:28;18.40;99.90
17348;DHT22;8791;50.876;4.342;2023-07-31T07:50:55;18.40;99.90
17348;DHT22;8791;50.876;4.342;2023-07-31T07:53:22;18.50;99.90
17348;DHT22;8791;50.876;4.342;2023-07-31T07:55:49;18.50;99.90
17348;DHT22;8791;50.876;4.342;2023-07-31T07:58:15;18.70;99.90
17348;DHT22;8791;50.876;4.342;2023-07-31T08:00:48;18.40;99.90
17348;DHT22;8791;50.876;4.342;2023-07-31T08:03:15;18.50;99.90
17348;DHT22;8791;50.876;4.342;2023-07-31T08:05:42;18.30;99.90
17348;DHT22;8791;50.876;4.342;2023-07-31T08:08:14;18.40;99.90
17348;DHT22;8791;50.876;4.342;2023-07-31T08:10:41;18.50;99.90
17348;DHT22;8791;50.876;4.342;2023-07-31T08:13:09;18.50;99.90
17348;DHT22;8791;50.876;4.342;2023-07-31T08:15:36;18.50;99.90
17348;DHT22;8791;50.876;4.342;2023-07-31T08:18:04;18.60;99.90
17348;DHT22;8791;50.876;4.342;2023-07-31T08:20:31;18.60;99.90
17348;DHT22;8791;50.876;4.342;2023-07-31T08:22:58;18.70;99.90
17348;DHT22;8791;50.876;4.342;2023-07-31T08:25:25;18.70;99.90
17348;DHT22;8791;50.876;4.342;2023-07-31T08:27:52;18.70;99.90
17348;DHT22;8791;50.876;4.342;2023-07-31T08:30:19;18.60;99.90
17348;DHT22;8791;50.876;4.342;2023-07-31T08:32:46;18.60;99.90
17348;DHT22;8791;50.876;4.342;2023-07-31T08:35:14;18.60;99.90
17348;DHT22;8791;50.876;4.342;2023-07-31T08:37:41;18.50;99.90
17348;DHT22;8791;50.876;4.342;2023-07-31T08:40:09;18.40;99.90
17348;DHT22;8791;50.876;4.342;2023-07-31T08:42:43;18.40;99.90
17348;DHT22;8791;50.876;4.342;2023-07-31T08:45:13;18.40;99.90
17348;DHT22;8791;50.876;4.342;2023-07-31T08:47:42;18.30;99.90
17348;DHT22;8791;50.876;4.342;2023-07-31T08:50:10;18.30;99.90
17348;DHT22;8791;50.876;4.342;2023-07-31T08:52:38;18.30;99.90
17348;DHT22;8791;50.876;4.342;2023-07-31T08:55:06;18.50;99.90
17348;DHT22;8791;50.876;4.342;2023-07-31T08:57:35;18.50;99.90
17348;DHT22;8791;50.876;4.342;2023-07-31T09:00:02;18.40;99.90
17348;DHT22;8791;50.876;4.342;2023-07-31T09:02:35;18.40;99.90
17348;DHT22;8791;50.876;4.342;2023-07-31T09:05:05;18.60;99.90
17348;DHT22;8791;50.876;4.342;2023-07-31T09:07:34;18.60;99.90
17348;DHT22;8791;50.876;4.342;2023-07-31T09:10:03;18.70;99.90
17348;DHT22;8791;50.876;4.342;2023-07-31T09:12:30;18.80;99.90
17348;DHT22;8791;50.876;4.342;2023-07-31T09:14:57;18.90;99.90
17348;DHT22;8791;50.876;4.342;2023-07-31T09:17:31;18.90;99.90
17348;DHT22;8791;50.876;4.342;2023-07-31T09:19:58;18.90;99.90
17348;DHT22;8791;50.876;4.342;2023-07-31T09:22:39;18.90;99.90
17348;DHT22;8791;50.876;4.342;2023-07-31T09:25:16;18.90;99.90
17348;DHT22;8791;50.876;4.342;2023-07-31T09:27:50;18.90;99.90
17348;DHT22;8791;50.876;4.342;2023-07-31T09:30:17;19.10;99.90
17348;DHT22;8791;50.876;4.342;2023-07-31T09:32:45;19.30;99.90
17348;DHT22;8791;50.876;4.342;2023-07-31T09:35:18;19.40;99.90
17348;DHT22;8791;50.876;4.342;2023-07-31T09:37:49;19.70;99.90
17348;DHT22;8791;50.876;4.342;2023-07-31T09:40:27;19.60;99.90
17348;DHT22;8791;50.876;4.342;2023-07-31T09:42:55;19.40;99.90
17348;DHT22;8791;50.876;4.342;2023-07-31T09:45:24;19.20;99.90
17348;DHT22;8791;50.876;4.342;2023-07-31T09:47:51;19.30;99.90
17348;DHT22;8791;50.876;4.342;2023-07-31T09:52:45;19.10;99.90
17348;DHT22;8791;50.876;4.342;2023-07-31T09:55:12;19.10;99.90
17348;DHT22;8791;50.876;4.342;2023-07-31T09:57:42;19.10;99.90
17348;DHT22;8791;50.876;4.342;2023-07-31T10:00:10;19.10;99.90
17348;DHT22;8791;50.876;4.342;2023-07-31T10:02:38;18.90;99.90
17348;DHT22;8791;50.876;4.342;2023-07-31T10:05:07;18.70;99.90
17348;DHT22;8791;50.876;4.342;2023-07-31T10:07:37;18.70;99.90
17348;DHT22;8791;50.876;4.342;2023-07-31T10:10:07;18.60;99.90
17348;DHT22;8791;50.876;4.342;2023-07-31T10:12:35;18.70;99.90
17348;DHT22;8791;50.876;4.342;2023-07-31T10:15:05;18.70;99.90
17348;DHT22;8791;50.876;4.342;2023-07-31T10:17:33;18.60;99.90
17348;DHT22;8791;50.876;4.342;2023-07-31T10:20:02;18.50;99.90
17348;DHT22;8791;50.876;4.342;2023-07-31T10:22:33;18.70;99.90
17348;DHT22;8791;50.876;4.342;2023-07-31T10:25:00;18.80;99.90
17348;DHT22;8791;50.876;4.342;2023-07-31T10:27:27;18.80;99.90
17348;DHT22;8791;50.876;4.342;2023-07-31T10:29:56;19.00;99.90
17348;DHT22;8791;50.876;4.342;2023-07-31T10:32:26;19.10;99.90
17348;DHT22;8791;50.876;4.342;2023-07-31T10:34:54;19.20;99.90
17348;DHT22;8791;50.876;4.342;2023-07-31T10:37:22;19.10;99.90
17348;DHT22;8791;50.876;4.342;2023-07-31T10:39:58;19.10;99.90
17348;DHT22;8791;50.876;4.342;2023-07-31T10:42:33;19.00;99.90
17348;DHT22;8791;50.876;4.342;2023-07-31T10:45:02;19.10;99.90
17348;DHT22;8791;50.876;4.342;2023-07-31T10:47:30;19.10;99.90
17348;DHT22;8791;50.876;4.342;2023-07-31T10:50:28;19.20;99.90
17348;DHT22;8791;50.876;4.342;2023-07-31T10:52:56;19.20;99.90
17348;DHT22;8791;50.876;4.342;2023-07-31T10:55:29;19.30;99.90
17348;DHT22;8791;50.876;4.342;2023-07-31T10:57:57;19.50;99.90
17348;DHT22;8791;50.876;4.342;2023-07-31T11:00:26;19.50;99.90
17348;DHT22;8791;50.876;4.342;2023-07-31T11:03:02;19.60;99.90
17348;DHT22;8791;50.876;4.342;2023-07-31T11:05:44;19.70;99.90
17348;DHT22;8791;50.876;4.342;2023-07-31T11:08:12;19.60;99.90
17348;DHT22;8791;50.876;4.342;2023-07-31T11:10:39;19.70;99.90
17348;DHT22;8791;50.876;4.342;2023-07-31T11:13:06;19.80;99.90
17348;DHT22;8791;50.876;4.342;2023-07-31T11:15:33;19.90;99.90
17348;DHT22;8791;50.876;4.342;2023-07-31T11:18:02;20.10;99.90
17348;DHT22;8791;50.876;4.342;2023-07-31T11:20:31;20.30;99.90
17348;DHT22;8791;50.876;4.342;2023-07-31T11:23:00;20.60;99.90
17348;DHT22;8791;50.876;4.342;2023-07-31T11:25:29;20.60;99.90
17348;DHT22;8791;50.876;4.342;2023-07-31T11:27:56;20.40;99.90
17348;DHT22;8791;50.876;4.342;2023-07-31T11:30:23;20.40;99.90
17348;DHT22;8791;50.876;4.342;2023-07-31T11:32:49;20.40;99.90
17348;DHT22;8791;50.876;4.342;2023-07-31T11:35:18;20.40;99.90
17348;DHT22;8791;50.876;4.342;2023-07-31T11:37:45;20.20;99.90
17348;DHT22;8791;50.876;4.342;2023-07-31T11:40:12;20.30;99.90
17348;DHT22;8791;50.876;4.342;2023-07-31T11:42:39;20.20;99.90
17348;DHT22;8791;50.876;4.342;2023-07-31T11:45:08;20.30;99.90
17348;DHT22;8791;50.876;4.342;2023-07-31T11:47:36;20.40;99.90
17348;DHT22;8791;50.876;4.342;2023-07-31T11:50:05;20.30;99.90
17348;DHT22;8791;50.876;4.342;2023-07-31T11:52:36;20.30;99.90
17348;DHT22;8791;50.876;4.342;2023-07-31T11:55:05;20.30;99.90
17348;DHT22;8791;50.876;4.342;2023-07-31T11:57:35;20.30;99.90
17348;DHT22;8791;50.876;4.342;2023-07-31T12:00:03;20.10;99.90
17348;DHT22;8791;50.876;4.342;2023-07-31T12:02:31;20.10;99.90
17348;DHT22;8791;50.876;4.342;2023-07-31T12:04:58;20.10;99.90
17348;DHT22;8791;50.876;4.342;2023-07-31T12:07:25;20.10;99.90
17348;DHT22;8791;50.876;4.342;2023-07-31T12:09:54;20.20;99.90
17348;DHT22;8791;50.876;4.342;2023-07-31T12:12:22;20.30;99.90
17348;DHT22;8791;50.876;4.342;2023-07-31T12:14:50;20.40;99.90
17348;DHT22;8791;50.876;4.342;2023-07-31T12:17:18;20.40;99.90
17348;DHT22;8791;50.876;4.342;2023-07-31T12:19:45;20.40;99.90
17348;DHT22;8791;50.876;4.342;2023-07-31T12:22:16;20.40;99.90
17348;DHT22;8791;50.876;4.342;2023-07-31T12:24:44;20.40;99.90
17348;DHT22;8791;50.876;4.342;2023-07-31T12:27:13;20.40;99.90
17348;DHT22;8791;50.876;4.342;2023-07-31T12:29:42;20.30;99.90
17348;DHT22;8791;50.876;4.342;2023-07-31T12:32:23;20.40;99.90
17348;DHT22;8791;50.876;4.342;2023-07-31T12:34:50;20.50;99.90
17348;DHT22;8791;50.876;4.342;2023-07-31T12:37:17;20.60;99.90
17348;DHT22;8791;50.876;4.342;2023-07-31T12:39:44;20.70;99.90
17348;DHT22;8791;50.876;4.342;2023-07-31T12:42:12;20.80;99.90
17348;DHT22;8791;50.876;4.342;2023-07-31T12:44:39;21.00;99.90
17348;DHT22;8791;50.876;4.342;2023-07-31T12:47:06;21.00;99.90
17348;DHT22;8791;50.876;4.342;2023-07-31T12:49:33;21.10;99.90
17348;DHT22;8791;50.876;4.342;2023-07-31T12:52:02;21.00;99.90
17348;DHT22;8791;50.876;4.342;2023-07-31T12:54:28;20.80;99.90
17348;DHT22;8791;50.876;4.342;2023-07-31T12:56:55;20.80;99.90
17348;DHT22;8791;50.876;4.342;2023-07-31T12:59:23;20.80;99.90
17348;DHT22;8791;50.876;4.342;2023-07-31T13:01:50;20.90;99.90
17348;DHT22;8791;50.876;4.342;2023-07-31T13:04:17;20.80;99.90
17348;DHT22;8791;50.876;4.342;2023-07-31T13:06:44;20.80;99.90
17348;DHT22;8791;50.876;4.342;2023-07-31T13:09:11;20.80;99.90
17348;DHT22;8791;50.876;4.342;2023-07-31T13:11:38;20.50;99.90
17348;DHT22;8791;50.876;4.342;2023-07-31T13:14:04;20.40;99.90
17348;DHT22;8791;50.876;4.342;2023-07-31T13:16:33;20.30;99.90
17348;DHT22;8791;50.876;4.342;2023-07-31T13:18:59;20.10;99.90
17348;DHT22;8791;50.876;4.342;2023-07-31T13:21:26;20.00;99.90
17348;DHT22;8791;50.876;4.342;2023-07-31T13:23:53;19.70;99.90
17348;DHT22;8791;50.876;4.342;2023-07-31T13:26:25;19.60;99.90
17348;DHT22;8791;50.876;4.342;2023-07-31T13:28:53;19.60;99.90
17348;DHT22;8791;50.876;4.342;2023-07-31T13:31:20;19.30;99.90
17348;DHT22;8791;50.876;4.342;2023-07-31T13:33:48;19.30;99.90
17348;DHT22;8791;50.876;4.342;2023-07-31T13:36:15;19.20;99.90
17348;DHT22;8791;50.876;4.342;2023-07-31T13:38:41;19.20;99.90
17348;DHT22;8791;50.876;4.342;2023-07-31T13:41:08;19.10;99.90
17348;DHT22;8791;50.876;4.342;2023-07-31T13:43:35;19.10;99.90
17348;DHT22;8791;50.876;4.342;2023-07-31T13:46:02;19.10;99.90
17348;DHT22;8791;50.876;4.342;2023-07-31T13:48:33;19.10;99.90
17348;DHT22;8791;50.876;4.342;2023-07-31T13:51:01;19.10;99.90
17348;DHT22;8791;50.876;4.342;2023-07-31T13:53:28;19.00;99.90
17348;DHT22;8791;50.876;4.342;2023-07-31T13:55:55;18.90;99.90
17348;DHT22;8791;50.876;4.342;2023-07-31T13:58:22;18.90;99.90
17348;DHT22;8791;50.876;4.342;2023-07-31T14:00:49;18.90;99.90
17348;DHT22;8791;50.876;4.342;2023-07-31T14:03:15;18.70;99.90
17348;DHT22;8791;50.876;4.342;2023-07-31T14:05:42;18.70;99.90
17348;DHT22;8791;50.876;4.342;2023-07-31T14:08:10;18.70;99.90
17348;DHT22;8791;50.876;4.342;2023-07-31T14:10:37;18.60;99.90
17348;DHT22;8791;50.876;4.342;2023-07-31T14:13:04;18.50;99.90
17348;DHT22;8791;50.876;4.342;2023-07-31T14:15:31;18.50;99.90
17348;DHT22;8791;50.876;4.342;2023-07-31T14:18:01;18.60;99.90
17348;DHT22;8791;50.876;4.342;2023-07-31T14:20:28;18.70;99.90
17348;DHT22;8791;50.876;4.342;2023-07-31T14:22:54;18.60;99.90
17348;DHT22;8791;50.876;4.342;2023-07-31T14:25:23;18.60;99.90
17348;DHT22;8791;50.876;4.342;2023-07-31T14:27:50;18.50;99.90
17348;DHT22;8791;50.876;4.342;2023-07-31T14:30:16;18.50;99.90
17348;DHT22;8791;50.876;4.342;2023-07-31T14:32:44;18.70;99.90
17348;DHT22;8791;50.876;4.342;2023-07-31T14:35:10;18.70;99.90
17348;DHT22;8791;50.876;4.342;2023-07-31T14:37:38;18.60;99.90
17348;DHT22;8791;50.876;4.342;2023-07-31T14:40:06;18.70;99.90
17348;DHT22;8791;50.876;4.342;2023-07-31T14:42:35;18.70;99.90
17348;DHT22;8791;50.876;4.342;2023-07-31T14:45:02;18.70;99.90
17348;DHT22;8791;50.876;4.342;2023-07-31T14:47:29;18.70;99.90
17348;DHT22;8791;50.876;4.342;2023-07-31T14:49:57;18.70;99.90
17348;DHT22;8791;50.876;4.342;2023-07-31T14:52:24;18.70;99.90
17348;DHT22;8791;50.876;4.342;2023-07-31T14:54:51;18.80;99.90
17348;DHT22;8791;50.876;4.342;2023-07-31T14:57:18;18.80;99.90
17348;DHT22;8791;50.876;4.342;2023-07-31T14:59:49;18.90;99.90
17348;DHT22;8791;50.876;4.342;2023-07-31T15:02:16;18.80;99.90
17348;DHT22;8791;50.876;4.342;2023-07-31T15:04:42;18.70;99.90
17348;DHT22;8791;50.876;4.342;2023-07-31T15:07:09;18.70;99.90
17348;DHT22;8791;50.876;4.342;2023-07-31T15:09:36;18.70;99.90
17348;DHT22;8791;50.876;4.342;2023-07-31T15:12:03;18.70;99.90
17348;DHT22;8791;50.876;4.342;2023-07-31T15:14:30;18.70;99.90
17348;DHT22;8791;50.876;4.342;2023-07-31T15:16:58;18.70;99.90
17348;DHT22;8791;50.876;4.342;2023-07-31T15:19:25;18.60;99.90
17348;DHT22;8791;50.876;4.342;2023-07-31T15:21:52;18.50;99.90
17348;DHT22;8791;50.876;4.342;2023-07-31T15:24:19;18.40;99.90
17348;DHT22;8791;50.876;4.342;2023-07-31T15:26:46;18.50;99.90
17348;DHT22;8791;50.876;4.342;2023-07-31T15:29:12;18.40;99.90
17348;DHT22;8791;50.876;4.342;2023-07-31T15:31:44;18.40;99.90
17348;DHT22;8791;50.876;4.342;2023-07-31T15:34:13;18.40;99.90
17348;DHT22;8791;50.876;4.342;2023-07-31T15:36:41;18.40;99.90
17348;DHT22;8791;50.876;4.342;2023-07-31T15:39:07;18.40;99.90
17348;DHT22;8791;50.876;4.342;2023-07-31T15:41:34;18.40;99.90
17348;DHT22;8791;50.876;4.342;2023-07-31T15:44:01;18.40;99.90
17348;DHT22;8791;50.876;4.342;2023-07-31T15:46:28;18.50;99.90
17348;DHT22;8791;50.876;4.342;2023-07-31T15:48:55;18.60;99.90
17348;DHT22;8791;50.876;4.342;2023-07-31T15:51:24;18.60;99.90
17348;DHT22;8791;50.876;4.342;2023-07-31T15:53:51;18.50;99.90
17348;DHT22;8791;50.876;4.342;2023-07-31T15:56:18;18.60;99.90
17348;DHT22;8791;50.876;4.342;2023-07-31T15:58:45;18.50;99.90
17348;DHT22;8791;50.876;4.342;2023-07-31T16:01:12;18.60;99.90
17348;DHT22;8791;50.876;4.342;2023-07-31T16:03:39;18.50;99.90
17348;DHT22;8791;50.876;4.342;2023-07-31T16:06:06;18.50;99.90
17348;DHT22;8791;50.876;4.342;2023-07-31T16:08:34;18.60;99.90